Time;durP1;ratioP1;P1;durP2;ratioP2;P2;SDS_P1;SDS_P2;PMS_P1;PMS_P2;Temp;Humidity;BMP_temperature;BMP_pressure;BME280_temperature;BME280_humidity;BME280_pressure;Samples;Min_cycle;Max_cycle;Signal;HPM_P1;HPM_P2
2022/06/04 00:00:49;;;;;;;3.70;0.90;;;16.60;63.50;;;;;;4961822;28;20113;-84
2022/06/04 00:03:14;;;;;;;4.85;1.10;;;16.50;63.80;;;;;;4977618;28;20501;-81
2022/06/04 00:05:43;;;;;;;2.50;1.05;;;16.50;64.50;;;;;;4977536;28;20027;-82
2022/06/04 00:08:10;;;;;;;4.72;1.20;;;16.40;64.50;;;;;;4994873;28;20026;-82
2022/06/04 00:16:12;;;;;;;2.65;1.10;;;16.20;65.50;;;;;;4994046;28;20037;-84
2022/06/04 00:18:40;;;;;;;5.22;1.48;;;16.20;65.90;;;;;;4994675;28;20027;-83
2022/06/04 00:21:06;;;;;;;4.18;1.27;;;16.10;66.20;;;;;;4977254;28;20105;-83
2022/06/04 00:23:31;;;;;;;4.60;1.65;;;16.10;66.70;;;;;;4977131;28;20398;-83
2022/06/04 00:25:59;;;;;;;3.78;1.30;;;16.00;67.20;;;;;;4977839;28;20026;-83
2022/06/04 00:28:26;;;;;;;3.72;1.23;;;16.00;67.90;;;;;;4977021;28;20113;-82
2022/06/04 00:30:54;;;;;;;3.08;1.15;;;15.90;67.50;;;;;;4994511;28;20060;-82
2022/06/04 00:33:20;;;;;;;3.30;1.10;;;15.80;67.20;;;;;;4976960;28;20023;-82
2022/06/04 00:35:49;;;;;;;2.80;1.00;;;15.80;67.20;;;;;;4977078;28;20031;-82
2022/06/04 00:38:17;;;;;;;2.40;1.00;;;15.80;67.50;;;;;;4976756;28;20025;-82
2022/06/04 00:40:48;;;;;;;5.15;1.63;;;15.80;68.00;;;;;;4976919;28;20026;-82
2022/06/04 00:43:15;;;;;;;2.72;1.10;;;15.70;67.90;;;;;;4976936;28;20569;-82
2022/06/04 00:46:18;;;;;;;4.95;1.33;;;15.70;67.90;;;;;;4977089;28;20022;-83
2022/06/04 00:48:44;;;;;;;3.88;1.25;;;15.70;68.20;;;;;;4993631;28;20536;-83
2022/06/04 00:51:10;;;;;;;3.95;1.33;;;15.70;68.30;;;;;;4993094;28;20062;-84
2022/06/04 00:53:36;;;;;;;3.20;1.10;;;15.60;68.20;;;;;;4977032;28;20387;-83
2022/06/04 00:56:28;;;;;;;6.35;1.92;;;15.60;68.30;;;;;;4977478;28;20049;-84
2022/06/04 00:59:38;;;;;;;4.20;1.15;;;15.60;69.20;;;;;;5009532;28;20042;-81
2022/06/04 01:02:17;;;;;;;2.88;1.23;;;15.50;69.20;;;;;;4976737;28;20046;-83
2022/06/04 01:05:20;;;;;;;5.00;1.45;;;15.50;69.60;;;;;;5009282;28;20023;-83
2022/06/04 01:08:11;;;;;;;5.25;1.52;;;15.50;69.30;;;;;;5009343;28;20027;-83
2022/06/04 01:10:58;;;;;;;3.55;1.10;;;15.40;69.20;;;;;;5009159;28;20506;-82
2022/06/04 01:13:48;;;;;;;6.28;1.52;;;15.40;69.20;;;;;;4992778;28;20041;-82
2022/06/04 01:16:38;;;;;;;5.05;1.45;;;15.40;69.30;;;;;;4996763;28;20426;-82
2022/06/04 01:19:12;;;;;;;5.07;1.13;;;15.40;69.30;;;;;;4998094;28;20026;-87
2022/06/04 01:21:57;;;;;;;;;;;15.30;69.10;;;;;;5013544;28;20040;-82
2022/06/04 01:24:40;;;;;;;4.20;1.60;;;15.30;69.80;;;;;;4996756;28;20370;-82
2022/06/04 01:27:30;;;;;;;3.45;1.27;;;15.20;69.60;;;;;;4996649;28;20478;-83
2022/06/04 01:30:02;;;;;;;4.93;1.60;;;15.20;69.90;;;;;;4993919;28;20030;-82
2022/06/04 01:32:35;;;;;;;4.13;1.73;;;15.20;69.90;;;;;;5012961;28;20036;-83
2022/06/04 01:35:23;;;;;;;4.05;1.25;;;15.20;69.70;;;;;;4980272;28;20026;-82
2022/06/04 01:38:12;;;;;;;6.35;1.63;;;15.20;69.90;;;;;;4997721;28;20470;-82
2022/06/04 01:43:31;;;;;;;5.07;1.70;;;15.30;70.10;;;;;;4997602;28;20042;-82
2022/06/04 01:46:02;;;;;;;6.10;2.13;;;15.30;70.40;;;;;;4997400;28;20121;-82
2022/06/04 01:48:32;;;;;;;5.28;1.85;;;15.30;70.50;;;;;;4996111;28;20161;-82
2022/06/04 01:51:03;;;;;;;7.45;1.77;;;15.30;70.60;;;;;;4979894;28;20073;-82
2022/06/04 01:53:34;;;;;;;5.55;1.95;;;15.20;70.60;;;;;;4997329;28;20045;-83
2022/06/04 01:56:04;;;;;;;5.95;2.20;;;15.30;70.50;;;;;;5014932;28;20124;-82
2022/06/04 01:58:43;;;;;;;7.15;2.15;;;15.30;70.60;;;;;;5015403;28;20034;-82
2022/06/04 02:01:14;;;;;;;5.93;2.33;;;15.20;70.50;;;;;;4999421;28;20073;-81
2022/06/04 02:03:50;;;;;;;7.07;2.20;;;15.20;70.50;;;;;;5015371;28;20375;-81
2022/06/04 02:06:21;;;;;;;4.95;1.85;;;15.20;70.70;;;;;;5015374;28;20033;-81
2022/06/04 02:08:59;;;;;;;3.80;1.83;;;15.20;71.10;;;;;;4998956;28;20041;-82
2022/06/04 02:11:26;;;;;;;3.30;1.60;;;15.20;70.90;;;;;;4998975;28;20054;-82
2022/06/04 02:13:55;;;;;;;3.45;1.60;;;15.20;71.30;;;;;;5015340;28;20030;-81
2022/06/04 02:16:54;;;;;;;5.90;2.30;;;15.10;71.30;;;;;;5016374;28;20028;-82
2022/06/04 02:19:20;;;;;;;6.57;2.55;;;15.20;71.20;;;;;;4998710;28;20482;-83
2022/06/04 02:21:46;;;;;;;5.82;2.50;;;15.20;71.90;;;;;;5015233;28;20030;-78
2022/06/04 02:24:12;;;;;;;6.82;2.60;;;15.10;72.00;;;;;;5015054;28;20034;-79
2022/06/04 02:26:41;;;;;;;4.22;1.95;;;15.10;72.20;;;;;;5013744;28;20109;-76
2022/06/04 02:29:07;;;;;;;8.38;2.80;;;15.10;71.90;;;;;;5014825;28;20037;-77
2022/06/04 02:31:32;;;;;;;5.40;2.08;;;15.10;71.70;;;;;;5015180;28;20398;-78
2022/06/04 02:34:27;;;;;;;5.93;2.83;;;15.10;72.00;;;;;;4998721;28;20052;-77
2022/06/04 02:37:18;;;;;;;4.95;1.92;;;15.00;72.30;;;;;;5014597;28;20456;-79
2022/06/04 02:39:47;;;;;;;5.20;2.35;;;15.00;72.30;;;;;;5016125;28;20049;-77
2022/06/04 02:42:23;;;;;;;5.28;2.15;;;15.00;72.30;;;;;;5015167;28;20026;-79
2022/06/04 02:45:00;;;;;;;5.95;2.08;;;15.00;72.80;;;;;;4998865;28;20528;-79
2022/06/04 02:47:44;;;;;;;4.97;1.92;;;15.00;72.80;;;;;;5014576;28;20032;-79
2022/06/04 02:50:22;;;;;;;7.88;2.78;;;15.00;72.80;;;;;;5014547;28;20061;-77
2022/06/04 02:52:49;;;;;;;6.03;2.20;;;15.00;72.60;;;;;;5014948;28;20367;-77
2022/06/04 02:55:26;;;;;;;8.77;2.35;;;15.00;73.20;;;;;;4998190;28;20102;-78
2022/06/04 02:57:56;;;;;;;5.55;1.80;;;15.00;73.20;;;;;;5034545;28;20416;-77
2022/06/04 03:00:23;;;;;;;5.45;1.95;;;14.90;72.90;;;;;;5017900;28;20029;-79
2022/06/04 03:02:49;;;;;;;6.70;2.25;;;14.90;73.00;;;;;;5017975;28;20026;-77
2022/06/04 03:05:18;;;;;;;10.02;2.50;;;14.90;73.60;;;;;;5017526;28;20132;-79
2022/06/04 03:07:47;;;;;;;5.35;1.75;;;14.90;73.80;;;;;;5017535;28;20029;-80
2022/06/04 03:10:17;;;;;;;7.85;2.28;;;14.90;74.20;;;;;;5035222;28;20062;-80
2022/06/04 03:12:43;;;;;;;7.40;2.38;;;14.80;74.20;;;;;;5017411;28;20018;-79
2022/06/04 03:15:10;;;;;;;8.63;2.58;;;14.80;74.60;;;;;;5017533;28;20045;-78
2022/06/04 03:17:37;;;;;;;6.72;2.88;;;14.80;74.50;;;;;;5017335;28;20032;-78
2022/06/04 03:20:04;;;;;;;9.07;3.05;;;14.80;74.60;;;;;;5017238;28;20036;-78
2022/06/04 03:22:29;;;;;;;7.75;2.33;;;14.80;75.10;;;;;;5034820;28;20025;-82
2022/06/04 03:24:55;;;;;;;9.75;2.78;;;14.70;75.40;;;;;;5017335;28;20088;-83
2022/06/04 03:27:20;;;;;;;6.43;2.53;;;14.70;75.40;;;;;;5017210;28;20121;-82
2022/06/04 03:29:47;;;;;;;5.85;2.35;;;14.70;75.40;;;;;;5016981;28;20032;-82
2022/06/04 03:32:12;;;;;;;9.57;2.45;;;14.60;75.40;;;;;;5016976;28;20116;-82
2022/06/04 03:34:38;;;;;;;6.15;2.25;;;14.60;75.80;;;;;;5017009;28;20437;-83
2022/06/04 03:37:04;;;;;;;8.77;3.33;;;14.60;75.70;;;;;;5033429;28;20026;-83
2022/06/04 03:39:29;;;;;;;8.43;3.05;;;14.60;75.90;;;;;;5017073;28;20029;-82
2022/06/04 03:41:55;;;;;;;5.82;2.88;;;14.60;76.00;;;;;;5016869;28;20119;-82
2022/06/04 03:44:21;;;;;;;5.65;2.22;;;14.60;76.00;;;;;;5016816;28;20025;-82
2022/06/04 03:46:47;;;;;;;8.70;3.05;;;14.50;76.70;;;;;;5016756;28;20083;-82
2022/06/04 03:49:12;;;;;;;8.60;2.60;;;14.60;76.70;;;;;;5016966;28;20112;-82
2022/06/04 03:51:39;;;;;;;7.35;2.75;;;14.50;76.10;;;;;;5016759;28;20026;-83
2022/06/04 03:54:05;;;;;;;8.20;3.40;;;14.60;77.20;;;;;;5016851;28;20017;-83
2022/06/04 03:56:31;;;;;;;7.10;2.63;;;14.50;77.30;;;;;;5033308;28;20095;-83
2022/06/04 03:58:57;;;;;;;7.93;3.42;;;14.50;77.10;;;;;;5033426;28;20029;-85
2022/06/04 04:01:27;;;;;;;8.00;3.03;;;14.50;77.60;;;;;;5016933;28;20036;-84
2022/06/04 04:03:54;;;;;;;11.13;3.97;;;14.50;77.70;;;;;;5016675;28;20037;-83
2022/06/04 04:06:23;;;;;;;10.00;3.40;;;14.60;78.30;;;;;;5016458;28;20123;-83
2022/06/04 04:08:49;;;;;;;10.30;3.33;;;14.50;78.20;;;;;;5016534;28;20048;-83
2022/06/04 04:11:19;;;;;;;5.35;3.25;;;14.60;78.70;;;;;;5016591;28;20168;-84
2022/06/04 04:13:46;;;;;;;6.75;3.30;;;14.50;78.10;;;;;;5032946;28;20025;-83
2022/06/04 04:16:13;;;;;;;8.77;3.45;;;14.50;78.20;;;;;;5016264;28;20118;-84
2022/06/04 04:18:39;;;;;;;5.68;3.20;;;14.50;78.40;;;;;;5016225;28;20496;-84
2022/06/04 04:21:08;;;;;;;8.45;3.47;;;14.50;78.90;;;;;;5016116;28;20036;-85
2022/06/04 04:23:34;;;;;;;9.75;4.25;;;14.50;78.80;;;;;;5033741;28;20030;-82
2022/06/04 04:26:00;;;;;;;8.70;3.67;;;14.50;78.80;;;;;;5016123;28;20091;-84
2022/06/04 04:28:26;;;;;;;8.50;4.03;;;14.50;78.90;;;;;;4989730;28;20080;-84
2022/06/04 04:30:52;;;;;;;10.13;3.63;;;14.50;79.10;;;;;;4983524;28;20025;-83
2022/06/04 04:33:18;;;;;;;5.50;3.28;;;14.50;79.60;;;;;;5010724;28;20095;-83
2022/06/04 04:35:45;;;;;;;7.85;3.42;;;14.50;79.60;;;;;;5016018;28;20053;-84
2022/06/04 04:38:11;;;;;;;8.18;3.42;;;14.50;79.90;;;;;;5032112;28;20030;-80
2022/06/04 04:40:40;;;;;;;9.43;3.95;;;14.50;80.00;;;;;;5032842;28;20473;-79
2022/06/04 04:43:06;;;;;;;12.02;4.90;;;14.50;80.00;;;;;;5015653;28;20170;-79
2022/06/04 04:45:32;;;;;;;8.35;4.18;;;14.50;80.30;;;;;;5015762;28;20068;-80
2022/06/04 04:47:57;;;;;;;11.68;4.63;;;14.50;80.20;;;;;;5032464;28;20120;-79
2022/06/04 04:50:46;;;;;;;9.38;3.85;;;14.50;80.60;;;;;;5014979;28;20037;-80
2022/06/04 04:53:13;;;;;;;9.13;4.47;;;14.50;80.50;;;;;;5015686;28;20047;-81
2022/06/04 04:55:39;;;;;;;6.78;3.58;;;14.50;80.90;;;;;;5015570;28;20124;-79
2022/06/04 04:58:05;;;;;;;8.30;4.07;;;14.60;80.70;;;;;;5012182;28;20061;-79
2022/06/04 05:00:32;;;;;;;9.05;3.72;;;14.70;80.60;;;;;;5012331;28;20125;-79
2022/06/04 05:02:59;;;;;;;9.65;4.32;;;14.70;80.80;;;;;;5011275;28;20036;-80
2022/06/04 05:05:25;;;;;;;10.13;4.05;;;14.70;80.80;;;;;;5012564;28;20022;-80
2022/06/04 05:07:51;;;;;;;8.10;3.90;;;14.80;80.70;;;;;;4995921;28;20081;-80
2022/06/04 05:10:16;;;;;;;12.10;3.78;;;14.80;80.70;;;;;;5028821;28;20382;-80
2022/06/04 05:12:42;;;;;;;8.73;4.10;;;14.90;80.70;;;;;;4995812;28;20034;-81
2022/06/04 05:15:08;;;;;;;12.40;5.53;;;14.90;80.70;;;;;;5012140;28;20030;-80
2022/06/04 05:17:34;;;;;;;9.75;3.67;;;15.00;80.70;;;;;;4995980;28;20461;-81
2022/06/04 05:19:59;;;;;;;8.15;3.97;;;15.00;80.40;;;;;;5012031;28;20054;-79
2022/06/04 05:22:25;;;;;;;8.07;4.43;;;15.00;80.20;;;;;;4996010;28;20085;-78
2022/06/04 05:24:51;;;;;;;9.95;4.07;;;15.00;80.30;;;;;;4995971;28;20113;-79
2022/06/04 05:27:16;;;;;;;10.20;4.65;;;15.10;80.20;;;;;;5013380;28;20474;-79
2022/06/04 05:29:42;;;;;;;13.73;4.55;;;15.10;80.10;;;;;;5012019;28;20033;-79
2022/06/04 05:32:09;;;;;;;7.85;3.78;;;15.10;80.20;;;;;;4995815;28;20029;-78
2022/06/04 05:34:36;;;;;;;9.80;4.25;;;15.10;80.20;;;;;;4995816;28;20484;-80
2022/06/04 05:37:03;;;;;;;9.90;4.35;;;15.20;80.20;;;;;;5012186;28;20034;-80
2022/06/04 05:39:32;;;;;;;7.72;4.18;;;15.30;80.20;;;;;;4995772;28;20114;-80
2022/06/04 05:41:59;;;;;;;9.35;3.50;;;15.30;80.20;;;;;;5012016;28;20030;-80
2022/06/04 05:44:25;;;;;;;10.20;3.90;;;15.30;80.10;;;;;;4995621;28;20081;-81
2022/06/04 05:46:50;;;;;;;7.82;3.42;;;15.30;79.90;;;;;;4995958;28;20474;-82
2022/06/04 05:49:17;;;;;;;5.32;3.50;;;15.40;79.90;;;;;;5028991;28;20033;-80
2022/06/04 05:51:44;;;;;;;10.38;4.38;;;15.50;80.30;;;;;;4995519;28;20038;-81
2022/06/04 05:54:10;;;;;;;8.18;4.35;;;15.50;79.50;;;;;;4995682;28;20080;-80
2022/06/04 05:56:39;;;;;;;10.27;3.78;;;15.60;79.50;;;;;;5002010;28;20037;-81
2022/06/04 05:59:07;;;;;;;7.18;3.30;;;15.60;79.30;;;;;;5015533;28;20032;-82
2022/06/04 06:01:35;;;;;;;8.10;3.50;;;15.60;79.20;;;;;;5017239;28;20021;-82
2022/06/04 06:04:01;;;;;;;6.07;3.53;;;15.70;79.20;;;;;;5018971;28;20022;-81
2022/06/04 06:06:29;;;;;;;14.63;4.38;;;15.70;78.90;;;;;;5035315;28;20084;-82
2022/06/04 06:08:57;;;;;;;8.13;3.30;;;15.70;78.70;;;;;;5018697;28;20099;-79
2022/06/04 06:11:23;;;;;;;8.10;3.35;;;15.70;78.70;;;;;;5018638;28;20026;-81
2022/06/04 06:13:50;;;;;;;6.10;3.15;;;15.80;79.30;;;;;;5018701;28;20121;-82
2022/06/04 06:16:28;;;;;;;8.50;3.38;;;15.80;78.50;;;;;;5038073;28;20041;-81
2022/06/04 06:18:55;;;;;;;7.72;3.78;;;15.90;78.50;;;;;;5038246;28;20498;-81
2022/06/04 06:21:23;;;;;;;10.00;3.47;;;15.90;78.20;;;;;;5038190;28;20523;-82
2022/06/04 06:23:50;;;;;;;9.02;3.30;;;16.00;78.00;;;;;;5056516;28;20541;-82
2022/06/04 06:26:18;;;;;;;8.90;3.80;;;16.00;78.00;;;;;;5051286;28;20104;-82
2022/06/04 06:28:44;;;;;;;8.35;3.40;;;16.10;78.00;;;;;;5008325;28;20032;-83
2022/06/04 06:31:14;;;;;;;6.90;3.08;;;16.20;77.70;;;;;;5030988;28;20022;-81
2022/06/04 06:33:40;;;;;;;11.38;3.95;;;16.20;78.20;;;;;;5018097;28;20026;-82
2022/06/04 06:36:11;;;;;;;6.53;3.25;;;16.30;77.30;;;;;;5018034;28;20034;-81
2022/06/04 06:38:38;;;;;;;8.98;3.85;;;16.30;77.30;;;;;;5018199;28;20029;-81
2022/06/04 06:41:05;;;;;;;9.70;3.40;;;16.30;77.20;;;;;;5019758;28;20021;-79
2022/06/04 06:43:34;;;;;;;5.00;2.65;;;16.40;77.10;;;;;;5022949;28;20029;-79
2022/06/04 06:46:13;;;;;;;4.97;2.78;;;16.40;77.70;;;;;;5030052;28;20030;-79
2022/06/04 06:48:41;;;;;;;7.03;3.30;;;16.50;76.90;;;;;;5014832;28;20037;-80
2022/06/04 06:51:14;;;;;;;8.70;3.33;;;16.50;76.70;;;;;;5043018;28;20059;-80
2022/06/04 06:53:40;;;;;;;5.57;3.03;;;16.60;76.60;;;;;;5037625;28;20465;-79
2022/06/04 06:56:18;;;;;;;7.25;3.50;;;16.60;76.60;;;;;;5034933;28;20028;-79
2022/06/04 06:58:44;;;;;;;9.88;3.88;;;16.60;76.50;;;;;;5017885;28;20026;-81
2022/06/04 07:01:11;;;;;;;9.40;3.60;;;16.60;76.20;;;;;;5017612;28;20033;-81
2022/06/04 07:03:38;;;;;;;6.68;3.78;;;16.60;76.20;;;;;;5017536;28;20064;-80
2022/06/04 07:06:05;;;;;;;8.20;3.33;;;16.60;76.20;;;;;;5017558;28;20021;-82
2022/06/04 07:08:31;;;;;;;7.57;3.35;;;16.50;76.20;;;;;;5035226;28;20053;-79
2022/06/04 07:10:56;;;;;;;7.95;3.92;;;16.60;76.20;;;;;;5017546;28;20060;-79
2022/06/04 07:13:22;;;;;;;12.05;4.05;;;16.60;76.20;;;;;;5000472;28;20124;-81
2022/06/04 07:15:49;;;;;;;10.23;3.63;;;16.60;76.20;;;;;;4996306;28;20066;-81
2022/06/04 07:18:15;;;;;;;8.15;3.35;;;16.50;76.20;;;;;;4994244;28;20065;-80
2022/06/04 07:20:42;;;;;;;8.15;4.30;;;16.50;76.40;;;;;;4997488;28;20026;-81
2022/06/04 07:23:09;;;;;;;5.53;2.97;;;16.50;76.60;;;;;;4997519;28;20426;-80
2022/06/04 07:25:35;;;;;;;7.45;3.75;;;16.60;76.70;;;;;;4997683;28;20049;-80
2022/06/04 07:28:01;;;;;;;8.93;4.10;;;16.60;76.80;;;;;;4997691;28;20018;-81
2022/06/04 07:30:27;;;;;;;7.78;3.70;;;16.60;76.90;;;;;;5014977;28;20030;-80
2022/06/04 07:32:53;;;;;;;6.75;3.20;;;16.70;76.90;;;;;;5014445;28;20373;-80
2022/06/04 07:35:19;;;;;;;9.35;4.15;;;16.70;76.80;;;;;;4997311;28;20033;-79
2022/06/04 07:37:45;;;;;;;7.13;3.38;;;16.70;76.70;;;;;;4997490;28;20026;-81
2022/06/04 07:40:11;;;;;;;9.05;3.88;;;16.80;76.80;;;;;;4997333;28;20454;-80
2022/06/04 07:42:37;;;;;;;10.05;3.65;;;16.90;76.80;;;;;;5001769;28;20031;-81
2022/06/04 07:45:04;;;;;;;10.48;3.72;;;16.90;76.60;;;;;;5013936;28;20099;-81
2022/06/04 07:47:29;;;;;;;8.25;3.35;;;17.00;76.50;;;;;;4954229;28;20141;-81
2022/06/04 07:49:56;;;;;;;8.18;3.30;;;17.00;76.30;;;;;;4980840;28;20125;-78
2022/06/04 07:52:22;;;;;;;9.18;3.35;;;17.10;76.20;;;;;;4980953;28;20037;-82
2022/06/04 07:54:48;;;;;;;11.88;4.50;;;17.20;76.00;;;;;;4980861;28;20030;-82
2022/06/04 07:57:14;;;;;;;7.82;3.90;;;17.20;76.00;;;;;;5005529;28;20189;-81
2022/06/04 07:59:40;;;;;;;7.35;3.00;;;17.30;75.90;;;;;;4981133;28;20175;-81
2022/06/04 08:02:05;;;;;;;7.68;3.33;;;17.40;75.90;;;;;;5014423;28;20037;-81
2022/06/04 08:04:31;;;;;;;8.40;3.13;;;17.40;75.90;;;;;;4996927;28;20048;-81
2022/06/04 08:06:57;;;;;;;9.77;3.35;;;17.50;75.70;;;;;;4981257;28;20390;-82
2022/06/04 08:09:23;;;;;;;8.90;3.13;;;17.60;74.90;;;;;;5013402;28;20030;-81
2022/06/04 08:11:48;;;;;;;7.00;2.72;;;17.70;74.80;;;;;;4996644;28;20026;-82
2022/06/04 08:14:17;;;;;;;6.10;2.95;;;17.80;74.70;;;;;;5013033;28;20040;-81
2022/06/04 08:16:47;;;;;;;6.28;2.78;;;17.90;74.60;;;;;;4996591;28;20081;-82
2022/06/04 08:19:14;;;;;;;10.32;3.38;;;18.00;74.60;;;;;;5013184;28;20033;-81
2022/06/04 08:21:41;;;;;;;7.28;3.78;;;18.00;74.40;;;;;;4996407;28;20108;-82
2022/06/04 08:24:08;;;;;;;10.40;2.85;;;18.10;74.20;;;;;;4995508;28;20088;-82
2022/06/04 08:26:34;;;;;;;9.48;3.72;;;18.20;73.90;;;;;;4996535;28;20105;-81
2022/06/04 08:29:00;;;;;;;13.40;3.03;;;18.30;73.40;;;;;;4996253;28;20117;-82
2022/06/04 08:31:26;;;;;;;8.77;2.40;;;18.30;73.10;;;;;;4996169;28;20029;-83
2022/06/04 08:33:52;;;;;;;6.22;2.70;;;18.40;73.10;;;;;;4996419;28;20026;-80
2022/06/04 08:36:19;;;;;;;8.18;2.83;;;18.40;73.00;;;;;;4996284;28;20053;-82
2022/06/04 08:38:45;;;;;;;8.77;2.78;;;18.50;72.90;;;;;;4996427;28;20030;-81
2022/06/04 08:41:38;;;;;;;7.95;3.22;;;18.50;72.70;;;;;;4996638;28;20500;-81
2022/06/04 08:44:07;;;;;;;6.28;2.38;;;18.60;72.70;;;;;;4997822;28;20497;-80
2022/06/04 08:46:40;;;;;;;5.50;2.58;;;18.70;72.50;;;;;;5015455;28;20485;-83
2022/06/04 08:49:32;;;;;;;6.60;2.92;;;18.80;72.20;;;;;;5015369;28;20018;-78
2022/06/04 08:52:01;;;;;;;6.72;3.60;;;18.90;71.80;;;;;;5008744;28;20038;-80
2022/06/04 08:57:32;;;;;;;5.85;2.80;;;18.90;71.10;;;;;;4979311;28;20061;-82
2022/06/04 09:00:16;;;;;;;5.75;2.25;;;19.00;70.90;;;;;;4993112;28;20039;-83
2022/06/04 09:02:47;;;;;;;6.10;2.38;;;19.10;70.80;;;;;;4976738;28;20534;-82
2022/06/04 09:05:16;;;;;;;6.65;3.05;;;19.10;70.60;;;;;;4976474;28;20058;-82
2022/06/04 09:07:46;;;;;;;6.68;3.25;;;19.30;70.40;;;;;;4977154;28;20029;-84
2022/06/04 09:10:29;;;;;;;9.88;3.30;;;19.30;70.10;;;;;;4992959;28;20023;-84
2022/06/04 09:13:01;;;;;;;7.88;2.55;;;19.40;69.80;;;;;;4977427;28;20022;-84
2022/06/04 09:15:37;;;;;;;5.40;2.38;;;19.60;69.80;;;;;;5032120;28;20083;-84
2022/06/04 09:18:21;;;;;;;8.85;3.22;;;19.70;69.50;;;;;;5007158;28;20033;-84
2022/06/04 09:20:52;;;;;;;8.68;3.17;;;19.70;69.10;;;;;;5015620;28;20022;-84
2022/06/04 09:23:24;;;;;;;6.07;2.50;;;19.90;68.90;;;;;;5015449;28;20053;-84
2022/06/04 09:26:13;;;;;;;6.90;2.65;;;20.00;68.70;;;;;;5016158;28;20043;-85
2022/06/04 09:28:58;;;;;;;6.78;2.72;;;20.00;68.60;;;;;;5033259;28;20029;-84
2022/06/04 09:31:40;;;;;;;9.15;2.33;;;20.20;68.30;;;;;;5033334;28;20424;-84
2022/06/04 09:34:16;;;;;;;8.05;2.63;;;20.30;68.20;;;;;;5015670;28;20032;-84
2022/06/04 09:36:46;;;;;;;6.22;2.25;;;20.40;67.90;;;;;;5018126;28;20451;-86
2022/06/04 09:39:33;;;;;;;5.03;2.33;;;20.50;67.00;;;;;;5019410;28;20443;-85
2022/06/04 09:42:20;;;;;;;9.57;2.45;;;20.60;66.60;;;;;;5036913;28;20033;-84
2022/06/04 09:45:01;;;;;;;4.72;2.22;;;20.70;66.50;;;;;;5019680;28;20014;-86
2022/06/04 09:47:48;;;;;;;5.18;2.35;;;20.90;66.50;;;;;;5019131;28;20037;-85
2022/06/04 09:50:34;;;;;;;5.80;2.78;;;21.00;66.10;;;;;;5019312;28;20021;-84
2022/06/04 09:53:12;;;;;;;6.05;2.45;;;21.10;65.50;;;;;;5019204;28;20025;-84
2022/06/04 09:55:45;;;;;;;5.47;2.42;;;21.20;65.10;;;;;;4990189;28;20505;-85
2022/06/04 09:58:38;;;;;;;4.60;2.28;;;21.30;64.50;;;;;;5017220;28;20091;-84
2022/06/04 10:01:16;;;;;;;3.63;1.63;;;21.50;64.20;;;;;;5013440;28;20061;-82
2022/06/04 10:03:42;;;;;;;9.02;2.08;;;21.70;64.00;;;;;;4997397;28;20034;-81
2022/06/04 10:06:22;;;;;;;3.90;2.17;;;21.80;64.00;;;;;;5012175;28;20126;-83
2022/06/04 10:11:36;;;;;;;3.80;1.88;;;22.20;63.20;;;;;;4997254;28;20061;-84
2022/06/04 10:14:03;;;;;;;4.63;1.80;;;22.40;62.80;;;;;;4995983;28;20062;-83
2022/06/04 10:16:40;;;;;;;3.22;1.52;;;22.50;62.40;;;;;;4999545;28;20089;-85
2022/06/04 10:19:19;;;;;;;4.10;1.83;;;22.70;61.90;;;;;;5016157;28;20029;-84
2022/06/04 10:21:48;;;;;;;4.88;1.65;;;22.80;61.40;;;;;;5016687;28;20101;-85
2022/06/04 10:24:28;;;;;;;4.53;2.35;;;23.00;61.00;;;;;;4999341;28;20461;-84
2022/06/04 10:27:08;;;;;;;4.90;2.30;;;23.10;60.50;;;;;;5019392;28;20045;-83
2022/06/04 10:29:52;;;;;;;5.93;2.00;;;23.20;60.70;;;;;;5018665;28;20466;-87
2022/06/04 10:32:31;;;;;;;4.97;1.80;;;23.30;59.40;;;;;;5019373;28;20052;-83
2022/06/04 10:34:56;;;;;;;5.50;1.80;;;23.40;59.30;;;;;;5035424;28;20059;-85
2022/06/04 10:37:37;;;;;;;3.88;1.50;;;23.50;59.20;;;;;;5018355;28;20041;-80
2022/06/04 10:40:34;;;;;;;3.70;1.60;;;23.60;58.90;;;;;;5034575;28;20033;-82
2022/06/04 10:43:33;;;;;;;4.47;1.63;;;23.70;58.50;;;;;;5035902;28;20026;-80
2022/06/04 10:46:17;;;;;;;3.80;1.50;;;23.80;58.10;;;;;;4988423;28;20026;-80
2022/06/04 10:49:14;;;;;;;7.65;1.50;;;24.00;57.70;;;;;;4993922;28;20035;-79
2022/06/04 10:52:19;;;;;;;4.68;1.77;;;24.10;57.10;;;;;;5011593;28;20426;-80
2022/06/04 10:54:47;;;;;;;;;;;24.30;56.80;;;;;;5011790;28;20026;-78
2022/06/04 10:57:22;;;;;;;4.97;1.90;;;24.40;56.30;;;;;;4995401;28;19921;-78
2022/06/04 11:00:00;;;;;;;5.53;1.60;;;24.40;56.50;;;;;;5012120;28;20022;-80
2022/06/04 11:03:04;;;;;;;4.00;1.50;;;24.60;56.20;;;;;;5000698;28;20065;-78
2022/06/04 11:05:42;;;;;;;2.75;1.20;;;24.80;56.00;;;;;;4974459;28;20027;-84
2022/06/04 11:08:26;;;;;;;4.05;1.27;;;25.10;55.40;;;;;;5006632;28;20034;-80
2022/06/04 11:10:52;;;;;;;;;;;25.20;55.10;;;;;;5008088;28;20022;-82
2022/06/04 11:13:49;;;;;;;4.35;1.42;;;25.20;55.10;;;;;;5014202;28;19909;-83
2022/06/04 11:16:33;;;;;;;4.72;1.73;;;25.10;54.90;;;;;;5016056;28;20064;-82
2022/06/04 11:19:03;;;;;;;3.88;1.55;;;25.10;55.20;;;;;;5034036;28;20119;-81
2022/06/04 11:21:49;;;;;;;3.72;1.40;;;25.20;55.00;;;;;;5017386;28;20026;-81
2022/06/04 11:24:18;;;;;;;3.67;1.13;;;25.10;54.60;;;;;;5017157;28;20029;-82
2022/06/04 11:26:52;;;;;;;4.20;1.35;;;25.10;54.70;;;;;;5017140;28;20420;-83
2022/06/04 11:29:18;;;;;;;2.90;1.50;;;25.10;54.50;;;;;;5025558;28;20421;-81
2022/06/04 11:32:11;;;;;;;4.60;1.27;;;25.20;54.50;;;;;;4978034;28;20027;-82
2022/06/04 11:35:03;;;;;;;3.72;1.27;;;25.30;54.30;;;;;;4994204;28;20395;-82
2022/06/04 11:37:48;;;;;;;3.08;1.38;;;25.30;54.00;;;;;;4995571;28;20042;-82
2022/06/04 11:40:26;;;;;;;4.95;1.48;;;25.20;53.90;;;;;;4995455;28;20490;-83
2022/06/04 11:42:57;;;;;;;3.72;1.38;;;25.20;54.60;;;;;;4978578;28;20085;-83
2022/06/04 11:45:53;;;;;;;6.75;1.48;;;25.20;53.90;;;;;;4977958;28;20058;-80
2022/06/04 11:48:37;;;;;;;2.35;0.90;;;25.30;53.70;;;;;;4994599;28;20482;-81
2022/06/04 11:51:37;;;;;;;4.18;1.30;;;25.30;53.60;;;;;;4977904;28;20027;-82
2022/06/04 11:54:29;;;;;;;3.60;1.20;;;25.30;53.50;;;;;;4995231;28;20129;-82
2022/06/04 11:57:07;;;;;;;3.78;1.30;;;25.30;53.60;;;;;;4993627;28;20042;-82
2022/06/04 12:00:01;;;;;;;3.08;1.20;;;25.50;53.60;;;;;;4995026;28;20033;-82
2022/06/04 12:02:35;;;;;;;2.95;0.77;;;25.60;54.00;;;;;;4977747;28;20439;-82
2022/06/04 12:05:20;;;;;;;5.45;1.13;;;25.90;53.50;;;;;;4995196;28;20023;-82
2022/06/04 12:07:53;;;;;;;4.38;0.82;;;26.30;53.20;;;;;;4993632;28;20022;-82
2022/06/04 12:10:50;;;;;;;4.55;1.20;;;26.70;52.80;;;;;;4977297;28;20109;-80
2022/06/04 12:13:26;;;;;;;2.15;0.85;;;27.10;52.30;;;;;;4977307;28;20085;-81
2022/06/04 12:16:09;;;;;;;2.47;1.00;;;27.40;51.90;;;;;;4994769;28;20059;-82
2022/06/04 12:24:15;;;;;;;3.20;1.00;;;27.60;51.10;;;;;;4993338;28;20033;-82
2022/06/04 12:25:09;;;;;;;3.60;0.90;;;27.70;50.40;;;;;;4995667;28;20038;-80
2022/06/04 12:27:38;;;;;;;1.92;0.88;;;27.60;50.40;;;;;;4976855;28;20071;-82
2022/06/04 12:30:17;;;;;;;8.25;1.17;;;27.60;50.40;;;;;;4994097;28;20018;-82
2022/06/04 12:32:44;;;;;;;4.03;1.20;;;27.60;50.10;;;;;;4994426;28;20390;-81
2022/06/04 12:35:09;;;;;;;3.28;1.20;;;27.70;50.20;;;;;;4989901;28;20061;-82
2022/06/04 12:37:41;;;;;;;2.88;1.27;;;27.70;50.10;;;;;;5012442;28;20037;-79
2022/06/04 12:40:37;;;;;;;4.25;1.05;;;27.70;50.00;;;;;;5011972;28;20029;-82
2022/06/04 12:43:15;;;;;;;5.28;1.30;;;27.90;49.70;;;;;;5012473;28;20033;-81
2022/06/04 12:45:45;;;;;;;2.13;0.98;;;28.20;49.60;;;;;;5012408;28;20040;-82
2022/06/04 12:48:22;;;;;;;3.90;1.05;;;28.20;49.30;;;;;;4994846;28;20076;-80
2022/06/04 12:50:51;;;;;;;4.72;1.35;;;28.20;49.00;;;;;;5012483;28;20030;-82
2022/06/04 12:53:20;;;;;;;2.97;1.08;;;28.20;48.80;;;;;;5012055;28;20018;-81
2022/06/04 12:55:48;;;;;;;5.20;1.50;;;28.20;48.80;;;;;;5012442;28;20037;-80
2022/06/04 12:58:26;;;;;;;3.63;1.25;;;28.30;48.80;;;;;;5029582;28;20045;-82
2022/06/04 13:00:58;;;;;;;3.75;1.20;;;28.30;48.60;;;;;;5015925;28;20489;-82
2022/06/04 13:03:33;;;;;;;4.45;1.25;;;28.30;49.20;;;;;;5015903;28;20021;-81
2022/06/04 13:06:02;;;;;;;4.68;1.10;;;28.40;48.50;;;;;;5015924;28;20018;-82
2022/06/04 13:09:02;;;;;;;4.38;1.20;;;28.30;48.30;;;;;;5015502;28;20017;-82
2022/06/04 13:12:12;;;;;;;4.45;1.27;;;28.20;48.30;;;;;;5011693;28;20030;-81
2022/06/04 13:14:42;;;;;;;2.33;0.80;;;28.20;48.40;;;;;;4997179;28;20072;-82
2022/06/04 13:17:36;;;;;;;2.63;1.10;;;28.10;48.40;;;;;;5015036;28;20029;-82
2022/06/04 13:20:40;;;;;;;4.43;0.95;;;28.10;48.40;;;;;;5039432;28;20038;-82
2022/06/04 13:23:21;;;;;;;3.72;1.40;;;28.10;48.30;;;;;;5039862;28;20032;-82
2022/06/04 13:26:17;;;;;;;2.22;1.23;;;28.30;48.30;;;;;;5022137;28;20017;-82
2022/06/04 13:28:46;;;;;;;4.22;1.65;;;28.50;48.20;;;;;;5021655;28;20420;-81
2022/06/04 13:31:25;;;;;;;3.15;1.25;;;28.80;48.10;;;;;;5039486;28;20477;-79
2022/06/04 13:33:53;;;;;;;5.03;1.52;;;28.90;47.70;;;;;;5022082;28;20029;-81
2022/06/04 13:36:28;;;;;;;2.42;1.10;;;29.20;47.80;;;;;;5022234;28;20026;-82